createdAt,value
2022-07-30T00:00:06.424Z,21.10
2022-07-30T00:07:41.315Z,20.99
2022-07-30T00:15:15.100Z,20.93
2022-07-30T00:22:50.040Z,20.90
2022-07-30T00:30:23.890Z,20.75
2022-07-30T00:37:58.968Z,20.70
2022-07-30T00:45:32.686Z,20.63
2022-07-30T00:53:08.312Z,20.60
2022-07-30T01:00:41.964Z,20.55
2022-07-30T01:08:16.898Z,20.40
2022-07-30T01:15:50.470Z,20.37
2022-07-30T01:23:27.262Z,20.30
2022-07-30T01:31:03.620Z,20.21
2022-07-30T01:38:38.148Z,20.08
2022-07-30T01:46:13.393Z,20.05
2022-07-30T01:53:49.162Z,19.97
2022-07-30T02:01:24.563Z,19.94
2022-07-30T02:09:00.423Z,19.82
2022-07-30T02:16:37.875Z,19.85
2022-07-30T02:24:13.742Z,19.93
2022-07-30T02:31:49.710Z,19.80
2022-07-30T02:39:23.841Z,19.73
2022-07-30T02:47:00.187Z,19.70
2022-07-30T02:54:38.464Z,19.58
2022-07-30T03:02:14.949Z,19.50
2022-07-30T03:09:50.961Z,19.56
2022-07-30T03:17:29.386Z,19.62
2022-07-30T03:25:03.621Z,19.63
2022-07-30T03:32:38.692Z,19.58
2022-07-30T03:40:12.920Z,19.48
2022-07-30T03:47:48.746Z,19.45
2022-07-30T03:55:23.120Z,19.41
2022-07-30T04:02:58.002Z,19.37
2022-07-30T04:10:31.631Z,19.35
2022-07-30T04:18:07.578Z,19.30
2022-07-30T04:25:42.018Z,19.27
2022-07-30T04:33:16.987Z,19.17
2022-07-30T04:40:50.866Z,19.04
2022-07-30T04:48:26.767Z,19.11
2022-07-30T04:56:01.267Z,19.16
2022-07-30T05:03:37.551Z,19.19
2022-07-30T05:11:12.427Z,19.21
2022-07-30T05:18:47.751Z,19.24
2022-07-30T05:26:21.647Z,19.28
2022-07-30T05:34:00.161Z,19.30
2022-07-30T05:41:36.495Z,19.34
2022-07-30T05:49:11.464Z,19.35
2022-07-30T05:56:45.036Z,19.35
2022-07-30T06:04:20.064Z,19.47
2022-07-30T06:11:53.794Z,19.52
2022-07-30T06:19:32.499Z,19.64
2022-07-30T06:27:06.144Z,19.69
2022-07-30T06:34:41.072Z,19.76
2022-07-30T06:42:14.691Z,19.88
2022-07-30T06:49:49.560Z,19.91
2022-07-30T06:57:23.489Z,19.95
2022-07-30T07:04:58.436Z,20.08
2022-07-30T07:12:32.052Z,20.15
2022-07-30T07:20:08.017Z,20.22
2022-07-30T07:27:42.013Z,20.29
2022-07-30T07:35:17.287Z,20.40
2022-07-30T07:42:50.880Z,20.48
2022-07-30T07:50:25.793Z,20.59
2022-07-30T07:57:59.390Z,20.71
2022-07-30T08:06:01.107Z,20.81
2022-07-30T08:13:48.864Z,20.97
2022-07-30T08:21:23.750Z,21.04
2022-07-30T08:28:57.333Z,21.20
2022-07-30T08:36:32.282Z,21.46
2022-07-30T08:44:12.505Z,21.68
2022-07-30T08:51:48.195Z,21.98
2022-07-30T08:59:24.632Z,22.09
2022-07-30T09:07:19.809Z,22.19
2022-07-30T09:15:02.606Z,22.23
2022-07-30T09:22:44.568Z,22.28
2022-07-30T09:30:18.267Z,22.52
2022-07-30T09:38:04.547Z,22.63
2022-07-30T09:45:57.024Z,22.79
2022-07-30T09:53:32.750Z,23.22
2022-07-30T10:01:06.441Z,23.42
2022-07-30T10:08:42.585Z,23.88
2022-07-30T10:16:20.366Z,24.04
2022-07-30T10:23:59.069Z,24.12
2022-07-30T10:31:48.720Z,24.42
2022-07-30T10:39:29.189Z,24.91
2022-07-30T10:47:10.597Z,24.94
2022-07-30T10:54:47.294Z,24.86
2022-07-30T11:02:21.432Z,24.90
2022-07-30T11:10:05.514Z,25.02
2022-07-30T11:17:59.231Z,25.28
2022-07-30T11:25:51.730Z,25.32
2022-07-30T11:33:32.255Z,25.56
2022-07-30T11:41:11.457Z,25.56
2022-07-30T11:48:57.351Z,25.63
2022-07-30T11:56:32.581Z,25.51
2022-07-30T12:04:06.865Z,25.57
2022-07-30T12:11:41.785Z,25.68
2022-07-30T12:19:15.478Z,25.91
2022-07-30T12:26:50.544Z,26.28
2022-07-30T12:34:24.947Z,26.00
2022-07-30T12:41:59.961Z,26.19
2022-07-30T12:49:36.606Z,25.84
2022-07-30T12:57:23.738Z,25.74
2022-07-30T13:05:10.113Z,25.91
2022-07-30T13:12:47.303Z,26.28
2022-07-30T13:20:21.049Z,26.49
2022-07-30T13:27:56.006Z,26.47
2022-07-30T13:35:29.587Z,26.27
2022-07-30T13:43:04.760Z,26.24
2022-07-30T13:50:38.640Z,26.82
2022-07-30T13:58:13.666Z,26.89
2022-07-30T14:05:47.231Z,26.65
2022-07-30T14:13:22.412Z,27.04
2022-07-30T14:20:55.993Z,27.09
2022-07-30T14:28:30.977Z,27.08
2022-07-30T14:36:04.801Z,26.74
2022-07-30T14:43:39.743Z,26.15
2022-07-30T14:51:19.486Z,26.50
2022-07-30T14:58:56.070Z,27.06
2022-07-30T15:06:29.685Z,26.41
2022-07-30T15:14:04.867Z,26.29
2022-07-30T15:21:38.943Z,26.14
2022-07-30T15:29:13.919Z,25.97
2022-07-30T15:36:47.462Z,26.68
2022-07-30T15:44:22.493Z,26.72
2022-07-30T15:51:59.220Z,26.27
2022-07-30T15:59:34.528Z,26.28
2022-07-30T16:07:08.269Z,26.18
2022-07-30T16:14:43.224Z,26.37
2022-07-30T16:22:22.906Z,26.70
2022-07-30T16:29:59.243Z,26.59
2022-07-30T16:37:32.779Z,26.62
2022-07-30T16:45:08.242Z,26.34
2022-07-30T16:52:41.854Z,26.63
2022-07-30T17:00:18.190Z,26.29
2022-07-30T17:07:51.787Z,26.24
2022-07-30T17:15:32.255Z,25.83
2022-07-30T17:23:07.700Z,25.73
2022-07-30T17:30:42.662Z,25.64
2022-07-30T17:38:16.262Z,25.35
2022-07-30T17:45:51.307Z,25.22
2022-07-30T17:53:24.926Z,25.13
2022-07-30T18:01:02.696Z,25.06
2022-07-30T18:08:36.381Z,24.86
2022-07-30T18:16:11.733Z,24.82
2022-07-30T18:23:45.422Z,24.84
2022-07-30T18:31:20.789Z,24.78
2022-07-30T18:38:54.401Z,24.70
2022-07-30T18:46:29.373Z,24.59
2022-07-30T18:54:02.983Z,24.47
2022-07-30T19:01:39.157Z,24.33
2022-07-30T19:09:17.298Z,24.22
2022-07-30T19:16:53.013Z,24.09
2022-07-30T19:24:27.044Z,23.99
2022-07-30T19:32:02.986Z,23.80
2022-07-30T19:39:36.777Z,23.60
2022-07-30T19:47:15.866Z,23.48
2022-07-30T19:54:49.700Z,23.30
2022-07-30T20:02:24.664Z,23.13
2022-07-30T20:10:00.445Z,22.97
2022-07-30T20:17:38.258Z,22.80
2022-07-30T20:25:14.799Z,22.62
2022-07-30T20:32:50.866Z,22.45
2022-07-30T20:40:26.695Z,22.18
2022-07-30T20:48:02.575Z,21.93
2022-07-30T20:55:36.316Z,21.66
2022-07-30T21:03:14.122Z,21.53
2022-07-30T21:10:47.832Z,21.34
2022-07-30T21:18:23.230Z,21.17
2022-07-30T21:26:01.369Z,20.98
2022-07-30T21:33:37.903Z,20.83
2022-07-30T21:41:14.303Z,20.67
2022-07-30T21:49:07.945Z,20.53
2022-07-30T21:56:41.874Z,20.35
2022-07-30T22:04:17.855Z,20.19
2022-07-30T22:11:51.446Z,20.04
2022-07-30T22:19:26.430Z,19.94
2022-07-30T22:27:12.213Z,19.76
2022-07-30T22:34:50.114Z,19.60
2022-07-30T22:42:26.818Z,19.48
2022-07-30T22:50:02.066Z,19.30
2022-07-30T22:57:37.846Z,19.19
2022-07-30T23:05:13.752Z,19.05
2022-07-30T23:12:48.722Z,18.90
2022-07-30T23:20:24.704Z,18.82
2022-07-30T23:27:58.351Z,18.71
2022-07-30T23:35:33.343Z,18.65
2022-07-30T23:43:06.998Z,18.59
2022-07-30T23:50:42.068Z,18.49
2022-07-30T23:58:16.079Z,18.37
